sensor_id;sensor_type;location;lat;lon;timestamp;P1;durP1;ratioP1;P2;durP2;ratioP2
16173;SDS011;14031;50.158;8.626;2022-09-21T00:00:25;3.50;;;3.30;;
16173;SDS011;14031;50.158;8.626;2022-09-21T00:02:54;3.63;;;3.30;;
16173;SDS011;14031;50.158;8.626;2022-09-21T00:05:22;3.80;;;3.53;;
16173;SDS011;14031;50.158;8.626;2022-09-21T00:07:50;3.60;;;3.30;;
16173;SDS011;14031;50.158;8.626;2022-09-21T00:10:17;4.47;;;3.30;;
16173;SDS011;14031;50.158;8.626;2022-09-21T00:12:45;9.37;;;4.23;;
16173;SDS011;14031;50.158;8.626;2022-09-21T00:15:12;3.47;;;3.27;;
16173;SDS011;14031;50.158;8.626;2022-09-21T00:17:41;3.37;;;3.03;;
16173;SDS011;14031;50.158;8.626;2022-09-21T00:20:08;4.27;;;2.73;;
16173;SDS011;14031;50.158;8.626;2022-09-21T00:22:35;3.60;;;3.20;;
16173;SDS011;14031;50.158;8.626;2022-09-21T00:25:04;3.10;;;2.90;;
16173;SDS011;14031;50.158;8.626;2022-09-21T00:27:32;3.77;;;3.40;;
16173;SDS011;14031;50.158;8.626;2022-09-21T00:29:59;2.63;;;2.53;;
16173;SDS011;14031;50.158;8.626;2022-09-21T00:32:27;3.20;;;2.97;;
16173;SDS011;14031;50.158;8.626;2022-09-21T00:34:55;6.97;;;2.70;;
16173;SDS011;14031;50.158;8.626;2022-09-21T00:37:22;3.33;;;3.13;;
16173;SDS011;14031;50.158;8.626;2022-09-21T00:39:50;3.10;;;2.80;;
16173;SDS011;14031;50.158;8.626;2022-09-21T00:42:19;2.90;;;2.70;;
16173;SDS011;14031;50.158;8.626;2022-09-21T00:44:47;3.93;;;3.00;;
16173;SDS011;14031;50.158;8.626;2022-09-21T00:47:15;2.73;;;2.53;;
16173;SDS011;14031;50.158;8.626;2022-09-21T00:49:45;3.57;;;2.93;;
16173;SDS011;14031;50.158;8.626;2022-09-21T00:52:15;2.83;;;2.63;;
16173;SDS011;14031;50.158;8.626;2022-09-21T00:54:46;7.57;;;3.30;;
16173;SDS011;14031;50.158;8.626;2022-09-21T00:57:19;3.10;;;2.90;;
16173;SDS011;14031;50.158;8.626;2022-09-21T00:59:49;3.30;;;3.00;;
16173;SDS011;14031;50.158;8.626;2022-09-21T01:02:18;4.70;;;3.43;;
16173;SDS011;14031;50.158;8.626;2022-09-21T01:04:45;3.20;;;3.00;;
16173;SDS011;14031;50.158;8.626;2022-09-21T01:07:14;3.27;;;3.07;;
16173;SDS011;14031;50.158;8.626;2022-09-21T01:09:45;7.23;;;3.07;;
16173;SDS011;14031;50.158;8.626;2022-09-21T01:12:17;4.13;;;2.97;;
16173;SDS011;14031;50.158;8.626;2022-09-21T01:15:04;3.27;;;2.97;;
16173;SDS011;14031;50.158;8.626;2022-09-21T01:17:41;3.20;;;3.07;;
16173;SDS011;14031;50.158;8.626;2022-09-21T01:20:22;4.30;;;3.43;;
16173;SDS011;14031;50.158;8.626;2022-09-21T01:23:18;3.97;;;2.97;;
16173;SDS011;14031;50.158;8.626;2022-09-21T01:25:58;3.83;;;3.50;;
16173;SDS011;14031;50.158;8.626;2022-09-21T01:28:36;3.30;;;3.10;;
16173;SDS011;14031;50.158;8.626;2022-09-21T01:31:35;6.07;;;3.80;;
16173;SDS011;14031;50.158;8.626;2022-09-21T01:34:07;5.57;;;3.47;;
16173;SDS011;14031;50.158;8.626;2022-09-21T01:36:40;3.70;;;3.43;;
16173;SDS011;14031;50.158;8.626;2022-09-21T01:39:08;4.43;;;3.63;;
16173;SDS011;14031;50.158;8.626;2022-09-21T01:41:38;3.80;;;3.60;;
16173;SDS011;14031;50.158;8.626;2022-09-21T01:44:07;5.50;;;3.97;;
16173;SDS011;14031;50.158;8.626;2022-09-21T01:46:39;4.07;;;3.77;;
16173;SDS011;14031;50.158;8.626;2022-09-21T01:49:07;6.37;;;4.20;;
16173;SDS011;14031;50.158;8.626;2022-09-21T01:51:38;4.97;;;4.47;;
16173;SDS011;14031;50.158;8.626;2022-09-21T01:54:10;5.73;;;3.97;;
16173;SDS011;14031;50.158;8.626;2022-09-21T01:56:40;4.67;;;4.03;;
16173;SDS011;14031;50.158;8.626;2022-09-21T01:59:12;4.90;;;3.30;;
16173;SDS011;14031;50.158;8.626;2022-09-21T02:01:45;4.03;;;3.73;;
16173;SDS011;14031;50.158;8.626;2022-09-21T02:04:15;4.23;;;3.93;;
16173;SDS011;14031;50.158;8.626;2022-09-21T02:06:43;4.87;;;3.97;;
16173;SDS011;14031;50.158;8.626;2022-09-21T02:09:12;4.27;;;4.07;;
16173;SDS011;14031;50.158;8.626;2022-09-21T02:11:40;4.30;;;4.00;;
16173;SDS011;14031;50.158;8.626;2022-09-21T02:14:07;6.87;;;4.40;;
16173;SDS011;14031;50.158;8.626;2022-09-21T02:16:37;4.20;;;3.90;;
16173;SDS011;14031;50.158;8.626;2022-09-21T02:19:13;4.47;;;4.07;;
16173;SDS011;14031;50.158;8.626;2022-09-21T02:21:49;4.67;;;4.00;;
16173;SDS011;14031;50.158;8.626;2022-09-21T02:24:23;4.83;;;3.97;;
16173;SDS011;14031;50.158;8.626;2022-09-21T02:26:58;4.20;;;4.00;;
16173;SDS011;14031;50.158;8.626;2022-09-21T02:29:32;4.90;;;4.40;;
16173;SDS011;14031;50.158;8.626;2022-09-21T02:32:08;4.47;;;4.00;;
16173;SDS011;14031;50.158;8.626;2022-09-21T02:34:44;4.47;;;4.17;;
16173;SDS011;14031;50.158;8.626;2022-09-21T02:37:16;5.47;;;4.43;;
16173;SDS011;14031;50.158;8.626;2022-09-21T02:39:48;5.30;;;4.60;;
16173;SDS011;14031;50.158;8.626;2022-09-21T02:42:22;4.93;;;4.37;;
16173;SDS011;14031;50.158;8.626;2022-09-21T02:44:54;4.30;;;3.90;;
16173;SDS011;14031;50.158;8.626;2022-09-21T02:47:28;6.13;;;4.73;;
16173;SDS011;14031;50.158;8.626;2022-09-21T02:50:00;5.20;;;4.60;;
16173;SDS011;14031;50.158;8.626;2022-09-21T02:52:31;4.37;;;3.97;;
16173;SDS011;14031;50.158;8.626;2022-09-21T02:55:00;4.10;;;3.90;;
16173;SDS011;14031;50.158;8.626;2022-09-21T02:57:28;4.43;;;4.10;;
16173;SDS011;14031;50.158;8.626;2022-09-21T02:59:56;4.97;;;4.47;;
16173;SDS011;14031;50.158;8.626;2022-09-21T03:02:22;4.37;;;4.07;;
16173;SDS011;14031;50.158;8.626;2022-09-21T03:04:49;4.60;;;4.30;;
16173;SDS011;14031;50.158;8.626;2022-09-21T03:07:17;4.73;;;4.33;;
16173;SDS011;14031;50.158;8.626;2022-09-21T03:09:45;4.60;;;4.20;;
16173;SDS011;14031;50.158;8.626;2022-09-21T03:12:12;4.20;;;3.80;;
16173;SDS011;14031;50.158;8.626;2022-09-21T03:14:38;4.07;;;3.87;;
16173;SDS011;14031;50.158;8.626;2022-09-21T03:17:05;5.10;;;4.63;;
16173;SDS011;14031;50.158;8.626;2022-09-21T03:19:33;4.20;;;3.90;;
16173;SDS011;14031;50.158;8.626;2022-09-21T03:21:59;4.70;;;3.80;;
16173;SDS011;14031;50.158;8.626;2022-09-21T03:24:28;4.30;;;3.87;;
16173;SDS011;14031;50.158;8.626;2022-09-21T03:27:10;4.70;;;3.90;;
16173;SDS011;14031;50.158;8.626;2022-09-21T03:29:37;4.13;;;3.83;;
16173;SDS011;14031;50.158;8.626;2022-09-21T03:32:04;5.87;;;4.07;;
16173;SDS011;14031;50.158;8.626;2022-09-21T03:34:33;3.97;;;3.67;;
16173;SDS011;14031;50.158;8.626;2022-09-21T03:37:00;4.07;;;3.83;;
16173;SDS011;14031;50.158;8.626;2022-09-21T03:39:29;4.20;;;3.90;;
16173;SDS011;14031;50.158;8.626;2022-09-21T03:41:55;4.10;;;3.70;;
16173;SDS011;14031;50.158;8.626;2022-09-21T03:44:22;3.77;;;3.53;;
16173;SDS011;14031;50.158;8.626;2022-09-21T03:46:51;3.80;;;3.60;;
16173;SDS011;14031;50.158;8.626;2022-09-21T03:49:18;4.13;;;3.93;;
16173;SDS011;14031;50.158;8.626;2022-09-21T03:51:45;4.20;;;3.90;;
16173;SDS011;14031;50.158;8.626;2022-09-21T03:54:12;4.97;;;4.60;;
16173;SDS011;14031;50.158;8.626;2022-09-21T03:56:40;8.13;;;4.33;;
16173;SDS011;14031;50.158;8.626;2022-09-21T03:59:06;21.40;;;5.30;;
16173;SDS011;14031;50.158;8.626;2022-09-21T04:01:33;7.33;;;4.67;;
16173;SDS011;14031;50.158;8.626;2022-09-21T04:04:00;6.10;;;4.50;;
16173;SDS011;14031;50.158;8.626;2022-09-21T04:06:27;4.80;;;4.60;;
16173;SDS011;14031;50.158;8.626;2022-09-21T04:08:54;5.10;;;4.60;;
16173;SDS011;14031;50.158;8.626;2022-09-21T04:11:21;6.83;;;4.50;;
16173;SDS011;14031;50.158;8.626;2022-09-21T04:13:50;5.30;;;4.80;;
16173;SDS011;14031;50.158;8.626;2022-09-21T04:16:20;5.07;;;4.57;;
16173;SDS011;14031;50.158;8.626;2022-09-21T04:18:48;4.33;;;4.13;;
16173;SDS011;14031;50.158;8.626;2022-09-21T04:21:15;4.87;;;4.57;;
16173;SDS011;14031;50.158;8.626;2022-09-21T04:23:42;5.00;;;4.60;;
16173;SDS011;14031;50.158;8.626;2022-09-21T04:26:17;5.10;;;4.80;;
16173;SDS011;14031;50.158;8.626;2022-09-21T04:28:49;5.13;;;4.73;;
16173;SDS011;14031;50.158;8.626;2022-09-21T04:31:17;5.00;;;4.67;;
16173;SDS011;14031;50.158;8.626;2022-09-21T04:33:46;6.00;;;5.37;;
16173;SDS011;14031;50.158;8.626;2022-09-21T04:36:13;5.50;;;5.00;;
16173;SDS011;14031;50.158;8.626;2022-09-21T04:38:40;5.50;;;5.20;;
16173;SDS011;14031;50.158;8.626;2022-09-21T04:41:07;5.40;;;5.00;;
16173;SDS011;14031;50.158;8.626;2022-09-21T04:43:34;6.00;;;5.37;;
16173;SDS011;14031;50.158;8.626;2022-09-21T04:46:05;5.73;;;5.33;;
16173;SDS011;14031;50.158;8.626;2022-09-21T04:48:32;6.23;;;5.73;;
16173;SDS011;14031;50.158;8.626;2022-09-21T04:50:59;5.97;;;5.40;;
16173;SDS011;14031;50.158;8.626;2022-09-21T04:53:26;5.60;;;5.20;;
16173;SDS011;14031;50.158;8.626;2022-09-21T04:55:52;5.30;;;5.00;;
16173;SDS011;14031;50.158;8.626;2022-09-21T04:58:20;5.57;;;5.17;;
16173;SDS011;14031;50.158;8.626;2022-09-21T05:00:47;6.10;;;5.70;;
16173;SDS011;14031;50.158;8.626;2022-09-21T05:03:16;5.13;;;4.63;;
16173;SDS011;14031;50.158;8.626;2022-09-21T05:05:46;5.13;;;4.83;;
16173;SDS011;14031;50.158;8.626;2022-09-21T05:08:14;5.70;;;5.20;;
16173;SDS011;14031;50.158;8.626;2022-09-21T05:10:41;4.80;;;4.50;;
16173;SDS011;14031;50.158;8.626;2022-09-21T05:13:08;5.47;;;5.07;;
16173;SDS011;14031;50.158;8.626;2022-09-21T05:15:35;4.80;;;4.40;;
16173;SDS011;14031;50.158;8.626;2022-09-21T05:18:03;4.57;;;4.27;;
16173;SDS011;14031;50.158;8.626;2022-09-21T05:20:31;5.10;;;4.60;;
16173;SDS011;14031;50.158;8.626;2022-09-21T05:22:58;5.43;;;4.80;;
16173;SDS011;14031;50.158;8.626;2022-09-21T05:25:26;4.93;;;4.63;;
16173;SDS011;14031;50.158;8.626;2022-09-21T05:27:53;4.70;;;4.40;;
16173;SDS011;14031;50.158;8.626;2022-09-21T05:30:20;5.13;;;4.77;;
16173;SDS011;14031;50.158;8.626;2022-09-21T05:32:51;6.37;;;4.93;;
16173;SDS011;14031;50.158;8.626;2022-09-21T05:35:25;4.70;;;4.40;;
16173;SDS011;14031;50.158;8.626;2022-09-21T05:38:00;9.80;;;4.60;;
16173;SDS011;14031;50.158;8.626;2022-09-21T05:40:32;4.93;;;4.53;;
16173;SDS011;14031;50.158;8.626;2022-09-21T05:43:00;6.50;;;4.87;;
16173;SDS011;14031;50.158;8.626;2022-09-21T05:45:27;4.97;;;4.67;;
16173;SDS011;14031;50.158;8.626;2022-09-21T05:47:55;5.73;;;5.23;;
16173;SDS011;14031;50.158;8.626;2022-09-21T05:50:32;12.03;;;4.50;;
16173;SDS011;14031;50.158;8.626;2022-09-21T05:53:15;8.80;;;6.47;;
16173;SDS011;14031;50.158;8.626;2022-09-21T05:55:52;11.03;;;4.80;;
16173;SDS011;14031;50.158;8.626;2022-09-21T05:58:24;17.43;;;4.73;;
16173;SDS011;14031;50.158;8.626;2022-09-21T06:01:03;8.70;;;4.37;;
16173;SDS011;14031;50.158;8.626;2022-09-21T06:03:40;9.40;;;4.57;;
16173;SDS011;14031;50.158;8.626;2022-09-21T06:06:08;6.67;;;4.23;;
16173;SDS011;14031;50.158;8.626;2022-09-21T06:08:36;7.97;;;4.00;;
16173;SDS011;14031;50.158;8.626;2022-09-21T06:11:03;4.73;;;3.53;;
16173;SDS011;14031;50.158;8.626;2022-09-21T06:13:30;8.87;;;4.00;;
16173;SDS011;14031;50.158;8.626;2022-09-21T06:15:56;3.87;;;3.40;;
16173;SDS011;14031;50.158;8.626;2022-09-21T06:18:27;5.23;;;3.80;;
16173;SDS011;14031;50.158;8.626;2022-09-21T06:20:53;3.87;;;3.60;;
16173;SDS011;14031;50.158;8.626;2022-09-21T06:23:20;3.73;;;3.53;;
16173;SDS011;14031;50.158;8.626;2022-09-21T06:25:51;4.03;;;3.73;;
16173;SDS011;14031;50.158;8.626;2022-09-21T06:28:18;4.10;;;3.80;;
16173;SDS011;14031;50.158;8.626;2022-09-21T06:30:49;7.97;;;4.77;;
16173;SDS011;14031;50.158;8.626;2022-09-21T06:33:16;9.70;;;4.00;;
16173;SDS011;14031;50.158;8.626;2022-09-21T06:35:50;5.23;;;4.10;;
16173;SDS011;14031;50.158;8.626;2022-09-21T06:38:17;9.67;;;4.27;;
16173;SDS011;14031;50.158;8.626;2022-09-21T06:40:44;5.70;;;4.43;;
16173;SDS011;14031;50.158;8.626;2022-09-21T06:43:12;5.37;;;4.43;;
16173;SDS011;14031;50.158;8.626;2022-09-21T06:45:39;6.37;;;4.53;;
16173;SDS011;14031;50.158;8.626;2022-09-21T06:48:06;6.47;;;4.40;;
16173;SDS011;14031;50.158;8.626;2022-09-21T06:50:33;7.07;;;4.97;;
16173;SDS011;14031;50.158;8.626;2022-09-21T06:53:00;4.27;;;3.97;;
16173;SDS011;14031;50.158;8.626;2022-09-21T06:55:27;4.43;;;3.60;;
16173;SDS011;14031;50.158;8.626;2022-09-21T06:57:58;5.17;;;3.50;;
16173;SDS011;14031;50.158;8.626;2022-09-21T07:00:27;7.77;;;3.53;;
16173;SDS011;14031;50.158;8.626;2022-09-21T07:02:54;3.97;;;3.77;;
16173;SDS011;14031;50.158;8.626;2022-09-21T07:05:21;4.77;;;3.67;;
16173;SDS011;14031;50.158;8.626;2022-09-21T07:07:48;4.10;;;3.80;;
16173;SDS011;14031;50.158;8.626;2022-09-21T07:10:15;3.90;;;3.50;;
16173;SDS011;14031;50.158;8.626;2022-09-21T07:12:42;3.83;;;3.50;;
16173;SDS011;14031;50.158;8.626;2022-09-21T07:15:09;3.60;;;3.40;;
16173;SDS011;14031;50.158;8.626;2022-09-21T07:17:38;4.30;;;3.90;;
16173;SDS011;14031;50.158;8.626;2022-09-21T07:20:07;4.13;;;3.70;;
16173;SDS011;14031;50.158;8.626;2022-09-21T07:22:34;4.43;;;3.33;;
16173;SDS011;14031;50.158;8.626;2022-09-21T07:25:01;3.57;;;3.37;;
16173;SDS011;14031;50.158;8.626;2022-09-21T07:27:29;3.67;;;3.47;;
16173;SDS011;14031;50.158;8.626;2022-09-21T07:29:57;3.70;;;3.50;;
16173;SDS011;14031;50.158;8.626;2022-09-21T07:32:24;3.73;;;3.53;;
16173;SDS011;14031;50.158;8.626;2022-09-21T07:34:52;4.20;;;3.90;;
16173;SDS011;14031;50.158;8.626;2022-09-21T07:37:21;5.23;;;3.70;;
16173;SDS011;14031;50.158;8.626;2022-09-21T07:39:48;4.10;;;3.67;;
16173;SDS011;14031;50.158;8.626;2022-09-21T07:42:16;3.90;;;3.60;;
16173;SDS011;14031;50.158;8.626;2022-09-21T07:44:44;5.57;;;3.60;;
16173;SDS011;14031;50.158;8.626;2022-09-21T07:47:11;3.40;;;3.20;;
16173;SDS011;14031;50.158;8.626;2022-09-21T07:49:38;4.13;;;3.60;;
16173;SDS011;14031;50.158;8.626;2022-09-21T07:52:07;3.87;;;3.57;;
16173;SDS011;14031;50.158;8.626;2022-09-21T07:54:34;3.63;;;3.33;;
16173;SDS011;14031;50.158;8.626;2022-09-21T07:57:01;4.73;;;3.70;;
16173;SDS011;14031;50.158;8.626;2022-09-21T07:59:46;7.43;;;3.50;;
16173;SDS011;14031;50.158;8.626;2022-09-21T08:02:12;3.37;;;3.17;;
16173;SDS011;14031;50.158;8.626;2022-09-21T08:04:39;3.27;;;3.07;;
16173;SDS011;14031;50.158;8.626;2022-09-21T08:07:07;3.20;;;3.00;;
16173;SDS011;14031;50.158;8.626;2022-09-21T08:09:34;5.97;;;3.30;;
16173;SDS011;14031;50.158;8.626;2022-09-21T08:12:01;4.23;;;3.33;;
16173;SDS011;14031;50.158;8.626;2022-09-21T08:14:28;3.77;;;3.47;;
16173;SDS011;14031;50.158;8.626;2022-09-21T08:16:54;3.23;;;2.77;;
16173;SDS011;14031;50.158;8.626;2022-09-21T08:19:21;6.97;;;2.70;;
16173;SDS011;14031;50.158;8.626;2022-09-21T08:21:49;2.90;;;2.70;;
16173;SDS011;14031;50.158;8.626;2022-09-21T08:24:18;4.00;;;2.97;;
16173;SDS011;14031;50.158;8.626;2022-09-21T08:26:45;6.13;;;3.30;;
16173;SDS011;14031;50.158;8.626;2022-09-21T08:29:12;3.50;;;3.20;;
16173;SDS011;14031;50.158;8.626;2022-09-21T08:31:39;3.17;;;2.90;;
16173;SDS011;14031;50.158;8.626;2022-09-21T08:34:07;3.13;;;2.77;;
16173;SDS011;14031;50.158;8.626;2022-09-21T08:36:34;3.50;;;2.50;;
16173;SDS011;14031;50.158;8.626;2022-09-21T08:39:00;5.03;;;2.63;;
16173;SDS011;14031;50.158;8.626;2022-09-21T08:41:33;2.90;;;2.47;;
16173;SDS011;14031;50.158;8.626;2022-09-21T08:44:12;2.60;;;2.37;;
16173;SDS011;14031;50.158;8.626;2022-09-21T08:46:42;2.50;;;2.30;;
16173;SDS011;14031;50.158;8.626;2022-09-21T08:49:11;5.27;;;2.40;;
16173;SDS011;14031;50.158;8.626;2022-09-21T08:51:43;5.50;;;2.40;;
16173;SDS011;14031;50.158;8.626;2022-09-21T08:54:15;6.00;;;2.37;;
16173;SDS011;14031;50.158;8.626;2022-09-21T08:56:49;2.53;;;2.30;;
16173;SDS011;14031;50.158;8.626;2022-09-21T08:59:17;2.67;;;1.90;;
16173;SDS011;14031;50.158;8.626;2022-09-21T09:01:48;3.70;;;2.13;;
16173;SDS011;14031;50.158;8.626;2022-09-21T09:04:22;2.40;;;2.20;;
16173;SDS011;14031;50.158;8.626;2022-09-21T09:06:59;7.67;;;4.17;;
16173;SDS011;14031;50.158;8.626;2022-09-21T09:09:45;5.40;;;2.20;;
16173;SDS011;14031;50.158;8.626;2022-09-21T09:12:32;2.90;;;2.33;;
16173;SDS011;14031;50.158;8.626;2022-09-21T09:18:08;6.40;;;2.60;;
16173;SDS011;14031;50.158;8.626;2022-09-21T09:20:40;2.00;;;1.90;;
16173;SDS011;14031;50.158;8.626;2022-09-21T09:23:11;4.83;;;2.10;;
16173;SDS011;14031;50.158;8.626;2022-09-21T09:25:44;1.90;;;1.80;;
16173;SDS011;14031;50.158;8.626;2022-09-21T09:28:19;3.80;;;3.10;;
16173;SDS011;14031;50.158;8.626;2022-09-21T09:30:53;2.50;;;1.90;;
16173;SDS011;14031;50.158;8.626;2022-09-21T09:33:24;3.07;;;1.40;;
16173;SDS011;14031;50.158;8.626;2022-09-21T09:35:54;2.47;;;1.50;;
16173;SDS011;14031;50.158;8.626;2022-09-21T09:38:28;1.60;;;1.50;;
16173;SDS011;14031;50.158;8.626;2022-09-21T09:41:05;3.03;;;1.80;;
16173;SDS011;14031;50.158;8.626;2022-09-21T09:43:55;4.67;;;2.57;;
16173;SDS011;14031;50.158;8.626;2022-09-21T09:46:32;2.20;;;2.00;;
16173;SDS011;14031;50.158;8.626;2022-09-21T09:49:12;2.53;;;1.90;;
16173;SDS011;14031;50.158;8.626;2022-09-21T09:51:45;1.60;;;1.20;;
16173;SDS011;14031;50.158;8.626;2022-09-21T09:54:13;1.90;;;1.00;;
16173;SDS011;14031;50.158;8.626;2022-09-21T09:56:43;2.00;;;1.87;;
16173;SDS011;14031;50.158;8.626;2022-09-21T09:59:12;1.70;;;1.60;;
16173;SDS011;14031;50.158;8.626;2022-09-21T10:01:57;1.87;;;1.27;;
16173;SDS011;14031;50.158;8.626;2022-09-21T10:04:26;2.93;;;1.00;;
16173;SDS011;14031;50.158;8.626;2022-09-21T10:06:53;2.27;;;1.23;;
16173;SDS011;14031;50.158;8.626;2022-09-21T10:09:22;2.77;;;1.50;;
16173;SDS011;14031;50.158;8.626;2022-09-21T10:11:51;2.57;;;2.10;;
16173;SDS011;14031;50.158;8.626;2022-09-21T10:14:23;1.30;;;1.23;;
16173;SDS011;14031;50.158;8.626;2022-09-21T10:16:52;1.73;;;1.33;;
16173;SDS011;14031;50.158;8.626;2022-09-21T10:19:21;2.97;;;1.40;;
16173;SDS011;14031;50.158;8.626;2022-09-21T10:21:51;1.50;;;1.40;;
16173;SDS011;14031;50.158;8.626;2022-09-21T10:24:24;2.17;;;1.37;;
16173;SDS011;14031;50.158;8.626;2022-09-21T10:26:54;3.87;;;1.57;;
16173;SDS011;14031;50.158;8.626;2022-09-21T10:29:29;2.07;;;1.70;;
16173;SDS011;14031;50.158;8.626;2022-09-21T10:32:02;4.90;;;1.20;;
16173;SDS011;14031;50.158;8.626;2022-09-21T10:34:31;2.40;;;1.37;;
16173;SDS011;14031;50.158;8.626;2022-09-21T10:37:01;1.73;;;1.10;;
16173;SDS011;14031;50.158;8.626;2022-09-21T10:39:48;1.33;;;1.00;;
16173;SDS011;14031;50.158;8.626;2022-09-21T10:42:15;2.30;;;1.20;;
16173;SDS011;14031;50.158;8.626;2022-09-21T10:44:46;1.37;;;1.33;;
16173;SDS011;14031;50.158;8.626;2022-09-21T10:47:17;5.10;;;1.10;;
16173;SDS011;14031;50.158;8.626;2022-09-21T10:49:47;3.30;;;1.33;;
16173;SDS011;14031;50.158;8.626;2022-09-21T10:52:16;1.30;;;1.20;;
16173;SDS011;14031;50.158;8.626;2022-09-21T10:54:45;1.23;;;1.13;;
16173;SDS011;14031;50.158;8.626;2022-09-21T10:57:16;0.90;;;0.87;;
16173;SDS011;14031;50.158;8.626;2022-09-21T10:59:46;5.40;;;1.07;;
16173;SDS011;14031;50.158;8.626;2022-09-21T11:02:24;1.67;;;1.30;;
16173;SDS011;14031;50.158;8.626;2022-09-21T11:04:55;1.60;;;1.13;;
16173;SDS011;14031;50.158;8.626;2022-09-21T11:07:26;3.20;;;1.20;;
16173;SDS011;14031;50.158;8.626;2022-09-21T11:09:57;3.33;;;1.60;;
16173;SDS011;14031;50.158;8.626;2022-09-21T11:12:31;2.25;;;1.10;;
16173;SDS011;14031;50.158;8.626;2022-09-21T11:15:10;2.63;;;1.02;;
16173;SDS011;14031;50.158;8.626;2022-09-21T11:17:42;2.03;;;0.90;;
16173;SDS011;14031;50.158;8.626;2022-09-21T11:20:18;2.40;;;0.93;;
16173;SDS011;14031;50.158;8.626;2022-09-21T11:22:54;0.93;;;0.93;;
16173;SDS011;14031;50.158;8.626;2022-09-21T11:25:30;3.17;;;1.15;;
16173;SDS011;14031;50.158;8.626;2022-09-21T11:28:04;2.63;;;1.00;;
16173;SDS011;14031;50.158;8.626;2022-09-21T11:33:43;0.93;;;0.93;;
16173;SDS011;14031;50.158;8.626;2022-09-21T11:36:23;2.42;;;1.02;;
16173;SDS011;14031;50.158;8.626;2022-09-21T11:39:02;2.17;;;1.00;;
16173;SDS011;14031;50.158;8.626;2022-09-21T11:41:43;1.40;;;0.80;;
16173;SDS011;14031;50.158;8.626;2022-09-21T11:44:20;0.95;;;0.60;;
16173;SDS011;14031;50.158;8.626;2022-09-21T11:47:08;0.90;;;0.90;;
16173;SDS011;14031;50.158;8.626;2022-09-21T11:49:51;2.85;;;1.08;;
16173;SDS011;14031;50.158;8.626;2022-09-21T11:52:32;1.30;;;0.80;;
16173;SDS011;14031;50.158;8.626;2022-09-21T11:55:16;1.17;;;1.08;;
16173;SDS011;14031;50.158;8.626;2022-09-21T11:57:50;0.93;;;0.93;;
16173;SDS011;14031;50.158;8.626;2022-09-21T12:00:22;2.20;;;1.05;;
16173;SDS011;14031;50.158;8.626;2022-09-21T12:06:01;1.52;;;0.57;;
16173;SDS011;14031;50.158;8.626;2022-09-21T12:08:50;0.75;;;0.75;;
16173;SDS011;14031;50.158;8.626;2022-09-21T12:11:34;2.25;;;0.90;;
16173;SDS011;14031;50.158;8.626;2022-09-21T12:14:06;1.05;;;0.70;;
16173;SDS011;14031;50.158;8.626;2022-09-21T12:16:44;1.42;;;1.33;;
16173;SDS011;14031;50.158;8.626;2022-09-21T12:19:20;0.70;;;0.70;;
16173;SDS011;14031;50.158;8.626;2022-09-21T12:21:59;0.90;;;0.70;;
16173;SDS011;14031;50.158;8.626;2022-09-21T12:24:32;0.93;;;0.80;;
16173;SDS011;14031;50.158;8.626;2022-09-21T12:27:04;1.52;;;0.85;;
16173;SDS011;14031;50.158;8.626;2022-09-21T12:29:37;2.50;;;1.17;;
16173;SDS011;14031;50.158;8.626;2022-09-21T12:32:12;2.28;;;0.98;;
16173;SDS011;14031;50.158;8.626;2022-09-21T12:34:47;1.52;;;0.80;;
16173;SDS011;14031;50.158;8.626;2022-09-21T12:37:20;1.20;;;0.90;;
16173;SDS011;14031;50.158;8.626;2022-09-21T12:39:51;0.50;;;0.50;;
16173;SDS011;14031;50.158;8.626;2022-09-21T12:42:25;0.65;;;0.65;;
16173;SDS011;14031;50.158;8.626;2022-09-21T12:44:55;1.40;;;0.80;;
16173;SDS011;14031;50.158;8.626;2022-09-21T12:47:31;1.45;;;0.70;;
16173;SDS011;14031;50.158;8.626;2022-09-21T12:50:14;0.82;;;0.82;;
16173;SDS011;14031;50.158;8.626;2022-09-21T12:52:46;0.60;;;0.60;;
16173;SDS011;14031;50.158;8.626;2022-09-21T12:55:20;3.78;;;1.08;;
16173;SDS011;14031;50.158;8.626;2022-09-21T12:57:57;5.40;;;1.15;;
16173;SDS011;14031;50.158;8.626;2022-09-21T13:00:33;7.45;;;4.88;;
16173;SDS011;14031;50.158;8.626;2022-09-21T13:03:09;7.68;;;3.03;;
16173;SDS011;14031;50.158;8.626;2022-09-21T13:05:42;6.13;;;2.67;;
16173;SDS011;14031;50.158;8.626;2022-09-21T13:08:23;3.92;;;1.92;;
16173;SDS011;14031;50.158;8.626;2022-09-21T13:10:55;2.63;;;1.75;;
16173;SDS011;14031;50.158;8.626;2022-09-21T13:13:26;3.75;;;1.60;;
16173;SDS011;14031;50.158;8.626;2022-09-21T13:15:56;0.98;;;0.98;;
16173;SDS011;14031;50.158;8.626;2022-09-21T13:18:25;1.10;;;1.00;;
16173;SDS011;14031;50.158;8.626;2022-09-21T13:20:53;0.50;;;0.50;;
16173;SDS011;14031;50.158;8.626;2022-09-21T13:23:34;0.75;;;0.73;;
16173;SDS011;14031;50.158;8.626;2022-09-21T13:26:05;0.68;;;0.68;;
16173;SDS011;14031;50.158;8.626;2022-09-21T13:28:38;0.82;;;0.68;;
16173;SDS011;14031;50.158;8.626;2022-09-21T13:34:22;1.50;;;0.50;;
16173;SDS011;14031;50.158;8.626;2022-09-21T13:37:22;1.50;;;0.73;;
16173;SDS011;14031;50.158;8.626;2022-09-21T13:43:22;0.60;;;0.52;;
16173;SDS011;14031;50.158;8.626;2022-09-21T13:46:09;1.95;;;0.50;;
16173;SDS011;14031;50.158;8.626;2022-09-21T13:49:15;0.50;;;0.50;;
16173;SDS011;14031;50.158;8.626;2022-09-21T13:51:49;1.85;;;0.50;;
16173;SDS011;14031;50.158;8.626;2022-09-21T13:54:19;0.40;;;0.40;;
16173;SDS011;14031;50.158;8.626;2022-09-21T13:56:56;0.47;;;0.45;;
16173;SDS011;14031;50.158;8.626;2022-09-21T13:59:34;0.82;;;0.60;;
16173;SDS011;14031;50.158;8.626;2022-09-21T14:02:07;0.65;;;0.65;;
16173;SDS011;14031;50.158;8.626;2022-09-21T14:05:06;2.45;;;0.52;;
16173;SDS011;14031;50.158;8.626;2022-09-21T14:07:43;0.95;;;0.60;;
16173;SDS011;14031;50.158;8.626;2022-09-21T14:10:15;0.60;;;0.60;;
16173;SDS011;14031;50.158;8.626;2022-09-21T14:12:44;2.17;;;0.60;;
16173;SDS011;14031;50.158;8.626;2022-09-21T14:18:07;2.90;;;0.68;;
16173;SDS011;14031;50.158;8.626;2022-09-21T14:23:41;0.50;;;0.50;;
16173;SDS011;14031;50.158;8.626;2022-09-21T14:27:01;1.08;;;0.57;;
16173;SDS011;14031;50.158;8.626;2022-09-21T14:29:38;1.15;;;0.40;;
16173;SDS011;14031;50.158;8.626;2022-09-21T14:32:12;0.50;;;0.40;;
16173;SDS011;14031;50.158;8.626;2022-09-21T14:34:43;0.35;;;0.35;;
16173;SDS011;14031;50.158;8.626;2022-09-21T14:37:15;0.38;;;0.30;;
16173;SDS011;14031;50.158;8.626;2022-09-21T14:39:51;0.77;;;0.50;;
16173;SDS011;14031;50.158;8.626;2022-09-21T14:42:21;0.90;;;0.50;;
16173;SDS011;14031;50.158;8.626;2022-09-21T14:44:54;0.63;;;0.60;;
16173;SDS011;14031;50.158;8.626;2022-09-21T14:50:29;0.88;;;0.63;;
16173;SDS011;14031;50.158;8.626;2022-09-21T14:53:02;0.63;;;0.63;;
16173;SDS011;14031;50.158;8.626;2022-09-21T14:55:54;2.03;;;0.50;;
16173;SDS011;14031;50.158;8.626;2022-09-21T14:58:41;0.40;;;0.40;;
16173;SDS011;14031;50.158;8.626;2022-09-21T15:01:20;0.50;;;0.50;;
16173;SDS011;14031;50.158;8.626;2022-09-21T15:04:06;0.60;;;0.60;;
16173;SDS011;14031;50.158;8.626;2022-09-21T15:06:56;2.08;;;0.70;;
16173;SDS011;14031;50.158;8.626;2022-09-21T15:09:55;0.50;;;0.50;;
16173;SDS011;14031;50.158;8.626;2022-09-21T15:12:57;0.68;;;0.68;;
16173;SDS011;14031;50.158;8.626;2022-09-21T15:15:36;0.85;;;0.60;;
16173;SDS011;14031;50.158;8.626;2022-09-21T15:18:14;0.50;;;0.50;;
16173;SDS011;14031;50.158;8.626;2022-09-21T15:20:44;0.57;;;0.57;;
16173;SDS011;14031;50.158;8.626;2022-09-21T15:23:25;1.63;;;0.60;;
16173;SDS011;14031;50.158;8.626;2022-09-21T15:25:53;0.70;;;0.70;;
16173;SDS011;14031;50.158;8.626;2022-09-21T15:28:24;0.70;;;0.63;;
16173;SDS011;14031;50.158;8.626;2022-09-21T15:30:56;0.50;;;0.50;;
16173;SDS011;14031;50.158;8.626;2022-09-21T15:33:23;0.70;;;0.70;;
16173;SDS011;14031;50.158;8.626;2022-09-21T15:35:51;2.60;;;0.60;;
16173;SDS011;14031;50.158;8.626;2022-09-21T15:38:25;1.02;;;0.60;;
16173;SDS011;14031;50.158;8.626;2022-09-21T15:40:54;2.33;;;0.60;;